createdAt,value
2023-01-23T00:01:51.200Z,4.60
2023-01-23T00:06:50.254Z,4.60
2023-01-23T00:11:49.001Z,4.60
2023-01-23T00:16:48.220Z,4.60
2023-01-23T00:21:47.029Z,4.60
2023-01-23T00:26:46.043Z,4.60
2023-01-23T00:31:45.166Z,4.60
2023-01-23T00:36:44.150Z,4.60
2023-01-23T00:41:43.065Z,4.70
2023-01-23T00:46:42.167Z,4.70
2023-01-23T00:51:41.066Z,4.70
2023-01-23T00:56:40.076Z,4.60
2023-01-23T01:01:39.155Z,4.70
2023-01-23T01:06:38.104Z,4.60
2023-01-23T01:11:37.121Z,4.60
2023-01-23T01:16:36.001Z,4.60
2023-01-23T01:21:35.828Z,4.60
2023-01-23T01:26:35.175Z,4.50
2023-01-23T01:31:34.323Z,4.50
2023-01-23T01:36:33.013Z,4.50
2023-01-23T01:41:32.416Z,4.50
2023-01-23T01:46:34.323Z,4.60
2023-01-23T01:51:33.124Z,4.60
2023-01-23T01:56:32.120Z,4.60
2023-01-23T02:01:31.149Z,4.60
2023-01-23T02:06:33.041Z,4.70
2023-01-23T02:11:32.231Z,4.80
2023-01-23T02:16:32.367Z,4.80
2023-01-23T02:21:31.177Z,4.80
2023-01-23T02:26:31.937Z,4.80
2023-01-23T02:31:31.495Z,4.80
2023-01-23T02:36:32.189Z,4.70
2023-01-23T02:41:32.075Z,4.60
2023-01-23T02:46:31.335Z,4.60
2023-01-23T02:51:30.854Z,4.50
2023-01-23T02:56:30.070Z,4.40
2023-01-23T03:01:33.292Z,4.30
2023-01-23T03:06:35.097Z,4.20
2023-01-23T03:11:34.648Z,4.10
2023-01-23T03:16:35.957Z,3.90
2023-01-23T03:21:35.152Z,3.80
2023-01-23T03:26:34.351Z,3.60
2023-01-23T03:31:33.264Z,3.50
2023-01-23T03:36:32.986Z,3.40
2023-01-23T03:41:34.195Z,3.40
2023-01-23T03:46:33.350Z,3.40
2023-01-23T03:51:32.114Z,3.40
2023-01-23T03:56:31.286Z,3.40
2023-01-23T04:01:30.231Z,3.40
2023-01-23T04:06:30.412Z,3.40
2023-01-23T04:11:29.165Z,3.40
2023-01-23T04:16:28.561Z,3.50
2023-01-23T04:21:28.108Z,3.60
2023-01-23T04:26:27.474Z,3.80
2023-01-23T04:31:26.985Z,3.90
2023-01-23T04:36:26.916Z,4.10
2023-01-23T04:41:28.214Z,4.10
2023-01-23T04:46:31.799Z,4.00
2023-01-23T04:51:31.416Z,4.00
2023-01-23T04:56:31.309Z,3.90
2023-01-23T05:01:32.004Z,3.70
2023-01-23T05:06:31.937Z,3.70
2023-01-23T05:11:31.966Z,3.60
2023-01-23T05:16:50.084Z,3.60
2023-01-23T05:21:51.225Z,3.60
2023-01-23T05:26:50.532Z,3.50
2023-01-23T05:32:06.178Z,3.40
2023-01-23T05:37:07.285Z,3.40
2023-01-23T05:42:24.776Z,3.30
2023-01-23T05:47:24.830Z,3.40
2023-01-23T05:52:24.171Z,3.40
2023-01-23T05:57:41.867Z,3.30
2023-01-23T06:02:58.077Z,3.30
2023-01-23T06:07:57.423Z,3.20
2023-01-23T06:12:56.235Z,3.30
2023-01-23T06:17:56.278Z,3.30
2023-01-23T06:22:55.250Z,3.30
2023-01-23T06:27:55.089Z,3.30
2023-01-23T06:32:56.236Z,3.20
2023-01-23T06:37:56.817Z,3.20
2023-01-23T06:42:56.830Z,3.20
2023-01-23T06:47:56.880Z,3.10
2023-01-23T06:52:56.829Z,3.20
2023-01-23T06:57:56.660Z,3.20
2023-01-23T07:02:57.819Z,3.30
2023-01-23T07:07:57.269Z,3.50
2023-01-23T07:12:56.591Z,3.60
2023-01-23T07:17:55.191Z,3.70
2023-01-23T07:22:54.474Z,3.90
2023-01-23T07:27:53.301Z,4.00
2023-01-23T07:32:52.383Z,4.00
2023-01-23T07:37:51.330Z,4.10
2023-01-23T07:42:50.355Z,4.10
2023-01-23T07:47:49.360Z,4.20
2023-01-23T07:52:48.110Z,4.20
2023-01-23T07:57:47.364Z,4.30
2023-01-23T08:02:46.303Z,4.40
2023-01-23T08:07:45.414Z,4.50
2023-01-23T08:12:44.421Z,4.60
2023-01-23T08:17:43.433Z,4.60
2023-01-23T08:22:42.203Z,4.70
2023-01-23T08:27:41.232Z,4.80
2023-01-23T08:32:40.251Z,4.90
2023-01-23T08:37:41.138Z,5.00
2023-01-23T08:42:40.319Z,5.00
2023-01-23T08:47:39.439Z,5.10
2023-01-23T08:52:38.346Z,5.10
2023-01-23T08:57:37.363Z,5.20
2023-01-23T09:02:36.227Z,5.30
2023-01-23T09:07:37.458Z,5.30
2023-01-23T09:12:36.423Z,5.30
2023-01-23T09:17:35.226Z,5.40
2023-01-23T09:22:34.251Z,5.50
2023-01-23T09:27:33.350Z,5.50
2023-01-23T09:32:32.259Z,5.50
2023-01-23T09:37:33.738Z,5.50
2023-01-23T09:42:32.250Z,5.50
2023-01-23T09:47:31.307Z,5.60
2023-01-23T09:52:30.266Z,5.60
2023-01-23T09:57:29.476Z,5.60
2023-01-23T10:02:28.449Z,5.60
2023-01-23T10:07:27.301Z,5.50
2023-01-23T10:12:26.254Z,5.60
2023-01-23T10:17:25.489Z,5.60
2023-01-23T10:22:24.530Z,5.70
2023-01-23T10:27:23.745Z,5.70
2023-01-23T10:32:22.180Z,5.70
2023-01-23T10:37:21.732Z,5.90
2023-01-23T10:42:20.569Z,6.00
2023-01-23T10:47:19.362Z,6.20
2023-01-23T10:52:21.431Z,6.20
2023-01-23T10:57:20.375Z,6.30
2023-01-23T11:02:19.379Z,6.40
2023-01-23T11:07:18.402Z,6.50
2023-01-23T11:12:17.551Z,6.50
2023-01-23T11:17:16.424Z,6.50
2023-01-23T11:22:15.641Z,6.50
2023-01-23T11:27:14.442Z,6.70
2023-01-23T11:32:13.491Z,6.90
2023-01-23T11:37:12.459Z,7.10
2023-01-23T11:42:11.599Z,7.20
2023-01-23T11:47:10.272Z,7.20
2023-01-23T11:52:09.509Z,7.40
2023-01-23T11:57:08.518Z,7.40
2023-01-23T12:02:07.363Z,7.30
2023-01-23T12:07:06.323Z,7.20
2023-01-23T12:12:05.333Z,7.30
2023-01-23T12:17:06.453Z,7.50
2023-01-23T12:22:05.628Z,7.80
2023-01-23T12:27:04.428Z,8.00
2023-01-23T12:32:03.558Z,8.10
2023-01-23T12:37:12.035Z,7.90
2023-01-23T12:42:03.651Z,7.70
2023-01-23T12:47:02.459Z,7.60
2023-01-23T12:52:01.539Z,7.40
2023-01-23T12:57:00.535Z,7.10
2023-01-23T13:01:59.467Z,7.00
2023-01-23T13:06:58.348Z,6.90
2023-01-23T13:11:58.247Z,6.90
2023-01-23T13:16:57.837Z,6.90
2023-01-23T13:22:04.784Z,6.90
2023-01-23T13:27:06.042Z,6.80
2023-01-23T13:32:05.604Z,6.80
2023-01-23T13:37:04.523Z,6.80
2023-01-23T13:42:03.343Z,6.80
2023-01-23T13:47:04.491Z,6.80
2023-01-23T13:52:06.365Z,6.80
2023-01-23T13:57:05.360Z,6.80
2023-01-23T14:02:22.536Z,6.80
2023-01-23T14:07:24.424Z,6.80
2023-01-23T14:12:23.384Z,6.60
2023-01-23T14:17:22.403Z,6.50
2023-01-23T14:22:21.424Z,6.40
2023-01-23T14:27:22.167Z,6.30
2023-01-23T14:32:21.533Z,6.20
2023-01-23T14:37:20.496Z,6.20
2023-01-23T14:42:23.342Z,6.10
2023-01-23T14:47:20.392Z,6.00
2023-01-23T14:52:21.286Z,6.00
2023-01-23T14:57:20.711Z,5.90
2023-01-23T15:02:20.630Z,5.70
2023-01-23T15:07:20.491Z,5.70
2023-01-23T15:12:19.418Z,5.60
2023-01-23T15:17:18.586Z,5.50
2023-01-23T15:22:17.992Z,5.50
2023-01-23T15:27:17.543Z,5.40
2023-01-23T15:32:16.559Z,5.30
2023-01-23T15:37:15.572Z,5.40
2023-01-23T15:42:14.385Z,5.40
2023-01-23T15:47:13.401Z,5.40
2023-01-23T15:52:12.414Z,5.50
2023-01-23T15:57:11.648Z,5.40
2023-01-23T16:02:24.728Z,5.30
2023-01-23T16:07:11.497Z,5.20
2023-01-23T16:12:10.595Z,5.10
2023-01-23T16:17:16.692Z,5.10
2023-01-23T16:22:11.617Z,5.10
2023-01-23T16:27:10.608Z,5.10
2023-01-23T16:32:09.740Z,5.10
2023-01-23T16:37:08.636Z,5.10
2023-01-23T16:42:07.438Z,5.10
2023-01-23T16:47:06.455Z,5.00
2023-01-23T16:52:05.487Z,5.00
2023-01-23T16:57:04.427Z,5.00
2023-01-23T17:02:03.542Z,5.00
2023-01-23T17:07:02.516Z,4.90
2023-01-23T17:12:01.514Z,5.00
2023-01-23T17:17:00.578Z,5.10
2023-01-23T17:21:59.551Z,5.10
2023-01-23T17:26:58.575Z,5.10
2023-01-23T17:31:57.505Z,5.20
2023-01-23T17:36:56.567Z,5.20
2023-01-23T17:41:55.581Z,5.10
2023-01-23T17:46:54.638Z,5.10
2023-01-23T17:51:53.632Z,5.10
2023-01-23T17:56:52.631Z,5.10
2023-01-23T18:01:51.529Z,5.10
2023-01-23T18:06:50.659Z,5.10
2023-01-23T18:11:53.886Z,5.20
2023-01-23T18:16:53.307Z,5.20
2023-01-23T18:21:52.513Z,5.20
2023-01-23T18:26:51.509Z,5.10
2023-01-23T18:31:50.733Z,5.20
2023-01-23T18:36:49.634Z,5.20
2023-01-23T18:41:48.472Z,5.20
2023-01-23T18:46:47.494Z,5.10
2023-01-23T18:51:46.928Z,5.00
2023-01-23T18:56:45.676Z,4.90
2023-01-23T19:01:44.766Z,5.00
2023-01-23T19:06:44.262Z,5.00
2023-01-23T19:11:48.550Z,5.10
2023-01-23T19:16:47.673Z,5.10
2023-01-23T19:21:46.617Z,5.10
2023-01-23T19:26:45.676Z,5.10
2023-01-23T19:31:49.741Z,5.10
2023-01-23T19:36:45.529Z,5.10
2023-01-23T19:41:44.551Z,5.10
2023-01-23T19:46:43.771Z,5.10
2023-01-23T19:51:42.580Z,5.10
2023-01-23T19:56:42.050Z,5.10
2023-01-23T20:01:42.933Z,5.10
2023-01-23T20:06:42.396Z,5.10
2023-01-23T20:11:41.693Z,5.10
2023-01-23T20:16:42.383Z,5.10
2023-01-23T20:21:41.600Z,5.10
2023-01-23T20:26:40.743Z,5.20
2023-01-23T20:31:39.712Z,5.20
2023-01-23T20:36:38.587Z,5.20
2023-01-23T20:41:37.661Z,5.20
2023-01-23T20:46:36.693Z,5.30
2023-01-23T20:51:35.661Z,5.30
2023-01-23T20:56:35.148Z,5.30
2023-01-23T21:01:38.944Z,5.30
2023-01-23T21:06:38.590Z,5.30
2023-01-23T21:11:37.531Z,5.30
2023-01-23T21:16:36.634Z,5.20
2023-01-23T21:21:35.729Z,5.20
2023-01-23T21:26:34.915Z,5.20
2023-01-23T21:31:33.794Z,5.30
2023-01-23T21:36:32.720Z,5.20
2023-01-23T21:41:31.719Z,5.20
2023-01-23T21:46:30.754Z,5.20
2023-01-23T21:51:29.750Z,5.20
2023-01-23T21:56:29.007Z,5.20
2023-01-23T22:01:35.305Z,5.20
2023-01-23T22:12:47.355Z,5.30
2023-01-23T22:17:46.597Z,5.30
2023-01-23T22:22:45.763Z,5.30
2023-01-23T22:27:44.671Z,5.30
2023-01-23T22:32:43.688Z,5.30
2023-01-23T22:37:43.793Z,5.30
2023-01-23T22:42:42.789Z,5.20
2023-01-23T22:47:41.790Z,5.20
2023-01-23T22:52:40.857Z,5.20
2023-01-23T22:57:39.708Z,5.20
2023-01-23T23:02:38.824Z,5.20
2023-01-23T23:07:37.649Z,5.20
2023-01-23T23:12:36.643Z,5.20
2023-01-23T23:17:35.711Z,5.10
2023-01-23T23:22:34.667Z,5.10
2023-01-23T23:27:33.676Z,5.20
2023-01-23T23:32:32.947Z,5.30
2023-01-23T23:37:31.697Z,5.30
2023-01-23T23:42:30.723Z,5.30
2023-01-23T23:47:30.025Z,5.20
2023-01-23T23:52:28.735Z,5.10
2023-01-23T23:57:27.717Z,5.10
